createdAt,value
2022-10-24T00:00:17.135Z,5.30
2022-10-24T00:02:44.413Z,9.73
2022-10-24T00:05:14.775Z,8.43
2022-10-24T00:07:42.636Z,9.93
2022-10-24T00:10:12.344Z,9.75
2022-10-24T00:12:39.693Z,7.20
2022-10-24T00:15:07.164Z,6.60
2022-10-24T00:17:34.635Z,10.02
2022-10-24T00:20:01.913Z,11.57
2022-10-24T00:22:29.127Z,6.93
2022-10-24T00:24:56.297Z,7.53
2022-10-24T00:27:23.496Z,6.15
2022-10-24T00:29:50.692Z,9.98
2022-10-24T00:32:18.205Z,7.22
2022-10-24T00:34:45.359Z,10.98
2022-10-24T00:37:12.605Z,8.90
2022-10-24T00:39:40.017Z,13.65
2022-10-24T00:42:07.308Z,8.30
2022-10-24T00:44:38.436Z,10.52
2022-10-24T00:47:08.559Z,10.27
2022-10-24T00:49:44.795Z,5.68
2022-10-24T00:52:12.617Z,10.80
2022-10-24T00:54:40.900Z,12.82
2022-10-24T00:57:11.243Z,6.95
2022-10-24T00:59:41.447Z,8.52
2022-10-24T01:02:08.917Z,7.05
2022-10-24T01:04:36.108Z,9.82
2022-10-24T01:07:06.088Z,8.35
2022-10-24T01:09:40.280Z,5.93
2022-10-24T01:12:16.695Z,8.52
2022-10-24T01:14:46.619Z,6.45
2022-10-24T01:17:20.454Z,4.07
2022-10-24T01:19:53.633Z,9.80
2022-10-24T01:22:23.114Z,5.60
2022-10-24T01:25:15.240Z,6.00
2022-10-24T01:27:53.001Z,5.88
2022-10-24T01:30:20.385Z,10.77
2022-10-24T01:32:50.929Z,6.38
2022-10-24T01:35:21.286Z,6.85
2022-10-24T01:37:52.263Z,6.53
2022-10-24T01:40:22.441Z,9.30
2022-10-24T01:42:50.931Z,7.75
2022-10-24T01:45:21.880Z,10.00
2022-10-24T01:47:50.985Z,12.18
2022-10-24T01:50:19.861Z,7.22
2022-10-24T01:52:47.868Z,11.02
2022-10-24T01:55:15.313Z,12.20
2022-10-24T01:57:42.905Z,10.95
2022-10-24T02:00:16.333Z,11.88
2022-10-24T02:02:45.840Z,8.57
2022-10-24T02:05:17.026Z,10.43
2022-10-24T02:07:46.660Z,12.98
2022-10-24T02:10:34.040Z,10.00
2022-10-24T02:13:03.701Z,6.70
2022-10-24T02:15:34.077Z,8.88
2022-10-24T02:18:01.408Z,7.30
2022-10-24T02:20:31.660Z,9.50
2022-10-24T02:23:02.013Z,7.43
2022-10-24T02:25:33.722Z,8.45
2022-10-24T02:28:05.716Z,7.57
2022-10-24T02:30:34.156Z,8.98
2022-10-24T02:33:01.845Z,7.57
2022-10-24T02:35:33.235Z,13.48
2022-10-24T02:38:23.616Z,12.20
2022-10-24T02:40:52.441Z,11.13
2022-10-24T02:43:21.928Z,11.93
2022-10-24T02:45:50.051Z,8.18
2022-10-24T02:48:19.603Z,9.00
2022-10-24T02:50:47.094Z,12.88
2022-10-24T02:53:14.960Z,8.00
2022-10-24T02:55:42.241Z,8.05
2022-10-24T02:58:09.415Z,10.23
2022-10-24T03:00:36.652Z,7.72
2022-10-24T03:03:03.883Z,15.57
2022-10-24T03:05:31.009Z,8.95
2022-10-24T03:07:58.152Z,8.95
2022-10-24T03:10:25.297Z,11.07
2022-10-24T03:12:52.440Z,14.98
2022-10-24T03:15:19.631Z,7.75
2022-10-24T03:17:49.190Z,8.52
2022-10-24T03:20:17.280Z,7.30
2022-10-24T03:22:44.405Z,7.40
2022-10-24T03:25:11.944Z,8.50
2022-10-24T03:27:39.192Z,8.40
2022-10-24T03:30:06.750Z,7.50
2022-10-24T03:32:34.502Z,8.05
2022-10-24T03:35:02.045Z,13.07
2022-10-24T03:37:29.736Z,9.43
2022-10-24T03:39:56.937Z,7.10
2022-10-24T03:42:24.073Z,7.97
2022-10-24T03:44:51.223Z,9.30
2022-10-24T03:47:19.610Z,16.30
2022-10-24T03:49:46.733Z,14.73
2022-10-24T03:52:14.005Z,10.38
2022-10-24T03:54:41.144Z,10.27
2022-10-24T03:57:10.012Z,10.55
2022-10-24T03:59:37.648Z,9.23
2022-10-24T04:02:05.840Z,12.55
2022-10-24T04:04:33.366Z,8.15
2022-10-24T04:07:00.655Z,15.52
2022-10-24T04:09:28.525Z,9.68
2022-10-24T04:11:55.722Z,9.23
2022-10-24T04:14:22.957Z,11.85
2022-10-24T04:16:50.280Z,16.27
2022-10-24T04:19:18.323Z,7.97
2022-10-24T04:21:47.946Z,15.82
2022-10-24T04:24:15.238Z,13.38
2022-10-24T04:26:42.523Z,9.05
2022-10-24T04:29:09.765Z,15.68
2022-10-24T04:31:36.909Z,10.15
2022-10-24T04:34:05.588Z,7.28
2022-10-24T04:36:33.700Z,13.02
2022-10-24T04:41:33.024Z,12.77
2022-10-24T04:44:00.173Z,8.77
2022-10-24T04:46:27.333Z,10.60
2022-10-24T04:48:54.594Z,9.93
2022-10-24T04:51:22.674Z,5.30
2022-10-24T04:53:50.345Z,6.03
2022-10-24T04:56:18.632Z,14.57
2022-10-24T04:58:45.815Z,9.45
2022-10-24T05:01:13.060Z,7.80
2022-10-24T05:03:40.236Z,11.02
2022-10-24T05:06:07.469Z,7.82
2022-10-24T05:08:34.737Z,14.63
2022-10-24T05:11:01.870Z,10.82
2022-10-24T05:13:31.753Z,10.57
2022-10-24T05:16:01.690Z,5.97
2022-10-24T05:18:28.880Z,15.85
2022-10-24T05:20:59.954Z,12.40
2022-10-24T05:23:27.217Z,7.80
2022-10-24T05:25:54.686Z,11.75
2022-10-24T05:28:21.839Z,9.27
2022-10-24T05:30:49.006Z,7.90
2022-10-24T05:33:16.132Z,4.45
2022-10-24T05:35:43.452Z,9.48
2022-10-24T05:38:10.600Z,9.98
2022-10-24T05:40:37.759Z,6.47
2022-10-24T05:43:04.907Z,8.50
2022-10-24T05:45:32.094Z,7.65
2022-10-24T05:47:59.350Z,11.82
2022-10-24T05:50:27.151Z,10.05
2022-10-24T05:52:54.376Z,7.03
2022-10-24T05:55:21.566Z,7.43
2022-10-24T05:57:48.906Z,8.30
2022-10-24T06:00:17.054Z,12.48
2022-10-24T06:02:44.608Z,7.65
2022-10-24T06:05:11.937Z,7.20
2022-10-24T06:07:39.182Z,11.10
2022-10-24T06:10:07.134Z,9.13
2022-10-24T06:12:36.297Z,6.15
2022-10-24T06:15:04.821Z,11.68
2022-10-24T06:17:32.029Z,14.00
2022-10-24T06:19:59.178Z,11.88
2022-10-24T06:22:27.807Z,12.65
2022-10-24T06:24:55.058Z,6.78
2022-10-24T06:27:22.194Z,9.52
2022-10-24T06:29:49.344Z,14.95
2022-10-24T06:32:16.586Z,8.68
2022-10-24T06:34:43.717Z,9.82
2022-10-24T06:37:10.926Z,8.20
2022-10-24T06:39:38.077Z,10.13
2022-10-24T06:42:05.236Z,7.07
2022-10-24T06:44:32.559Z,13.52
2022-10-24T06:46:59.756Z,14.98
2022-10-24T06:49:26.941Z,6.50
2022-10-24T06:51:54.142Z,15.40
2022-10-24T06:54:22.430Z,8.10
2022-10-24T06:56:51.317Z,7.22
2022-10-24T06:59:18.977Z,9.55
2022-10-24T07:01:46.660Z,12.15
2022-10-24T07:04:14.030Z,11.35
2022-10-24T07:06:41.231Z,6.90
2022-10-24T07:09:11.481Z,6.57
2022-10-24T07:11:41.617Z,10.88
2022-10-24T07:14:09.530Z,7.03
2022-10-24T07:16:37.045Z,7.38
2022-10-24T07:19:04.628Z,9.60
2022-10-24T07:21:32.717Z,9.07
2022-10-24T07:24:00.301Z,7.07
2022-10-24T07:26:28.366Z,7.35
2022-10-24T07:28:56.783Z,11.13
2022-10-24T07:31:25.769Z,11.95
2022-10-24T07:33:54.383Z,7.50
2022-10-24T07:36:22.960Z,5.90
2022-10-24T07:38:51.282Z,12.50
2022-10-24T07:41:19.059Z,6.70
2022-10-24T07:43:46.909Z,9.45
2022-10-24T07:46:14.941Z,6.57
2022-10-24T07:48:42.770Z,5.88
2022-10-24T07:51:11.493Z,8.70
2022-10-24T07:53:39.730Z,8.18
2022-10-24T07:56:09.820Z,7.28
2022-10-24T07:58:37.756Z,12.07
2022-10-24T08:01:06.543Z,7.10
2022-10-24T08:03:33.917Z,9.30
2022-10-24T08:06:01.662Z,5.30
2022-10-24T08:08:36.207Z,8.50
2022-10-24T08:11:11.413Z,7.85
2022-10-24T08:13:38.608Z,6.05
2022-10-24T08:16:07.063Z,12.23
2022-10-24T08:18:38.693Z,12.48
2022-10-24T08:21:08.907Z,6.57
2022-10-24T08:23:37.989Z,7.18
2022-10-24T08:26:09.152Z,7.82
2022-10-24T08:28:36.455Z,5.68
2022-10-24T08:31:08.775Z,9.70
2022-10-24T08:33:36.235Z,12.52
2022-10-24T08:36:07.940Z,13.38
2022-10-24T08:38:35.132Z,9.75
2022-10-24T08:41:02.354Z,11.55
2022-10-24T08:43:30.266Z,9.05
2022-10-24T08:46:15.984Z,8.30
2022-10-24T08:48:46.237Z,11.93
2022-10-24T08:51:36.236Z,8.32
2022-10-24T08:54:04.709Z,6.07
2022-10-24T08:56:34.025Z,7.85
2022-10-24T08:59:02.728Z,14.98
2022-10-24T09:01:51.541Z,8.52
2022-10-24T09:04:20.845Z,10.75
2022-10-24T09:06:48.714Z,9.57
2022-10-24T09:09:15.899Z,11.13
2022-10-24T09:12:02.113Z,5.57
2022-10-24T09:14:33.865Z,7.97
2022-10-24T09:17:03.028Z,12.52
2022-10-24T09:19:31.564Z,6.60
2022-10-24T09:21:59.912Z,7.88
2022-10-24T09:24:33.297Z,10.55
2022-10-24T09:27:04.351Z,12.50
2022-10-24T09:29:32.437Z,9.05
2022-10-24T09:31:59.820Z,7.57
2022-10-24T09:34:27.125Z,10.70
2022-10-24T09:36:54.261Z,10.57
2022-10-24T09:39:26.634Z,9.80
2022-10-24T09:41:54.154Z,11.88
2022-10-24T09:44:44.455Z,10.60
2022-10-24T09:47:25.256Z,10.25
2022-10-24T09:49:52.392Z,9.65
2022-10-24T09:52:21.225Z,12.10
2022-10-24T09:55:03.816Z,8.65
2022-10-24T09:57:39.862Z,7.70
2022-10-24T10:00:08.135Z,12.15
2022-10-24T10:02:36.557Z,14.15
2022-10-24T10:05:03.811Z,7.60
2022-10-24T10:07:30.954Z,8.57
2022-10-24T10:10:03.116Z,9.90
2022-10-24T10:12:34.606Z,10.30
2022-10-24T10:15:02.619Z,9.63
2022-10-24T10:17:33.518Z,7.25
2022-10-24T10:20:00.729Z,8.10
2022-10-24T10:22:29.692Z,6.88
2022-10-24T10:24:57.209Z,13.95
2022-10-24T10:27:35.383Z,3.90
2022-10-24T10:30:17.643Z,9.43
2022-10-24T10:33:03.540Z,8.13
2022-10-24T10:38:04.586Z,6.07
2022-10-24T10:40:38.486Z,9.25
2022-10-24T10:43:15.469Z,14.27
2022-10-24T10:45:46.849Z,11.30
2022-10-24T10:48:33.038Z,13.82
2022-10-24T10:51:08.156Z,7.90
2022-10-24T10:53:39.005Z,6.43
2022-10-24T10:56:09.273Z,10.65
2022-10-24T10:58:44.629Z,10.48
2022-10-24T11:03:58.830Z,6.85
2022-10-24T11:06:26.614Z,6.53
2022-10-24T11:08:57.908Z,19.38
2022-10-24T11:11:28.039Z,3.00
2022-10-24T11:14:09.233Z,8.05
2022-10-24T11:16:36.600Z,8.50
2022-10-24T11:19:10.223Z,4.35
2022-10-24T11:21:39.868Z,9.35
2022-10-24T11:24:19.314Z,5.45
2022-10-24T11:26:46.589Z,7.72
2022-10-24T11:29:25.328Z,7.45
2022-10-24T11:32:06.401Z,4.50
2022-10-24T11:34:40.929Z,5.78
2022-10-24T11:37:14.105Z,7.47
2022-10-24T11:39:50.154Z,5.65
2022-10-24T11:42:20.418Z,5.75
2022-10-24T11:44:53.655Z,8.18
2022-10-24T11:47:20.763Z,6.25
2022-10-24T11:49:50.695Z,6.95
2022-10-24T11:52:28.437Z,6.13
2022-10-24T11:55:00.396Z,5.43
2022-10-24T11:57:29.285Z,7.85
2022-10-24T11:59:57.901Z,6.85
2022-10-24T12:02:37.102Z,7.80
2022-10-24T12:05:30.792Z,4.22
2022-10-24T12:07:58.511Z,5.22
2022-10-24T12:10:34.926Z,5.75
2022-10-24T12:13:11.171Z,5.20
2022-10-24T12:15:42.477Z,6.47
2022-10-24T12:18:12.682Z,6.00
2022-10-24T12:20:40.678Z,8.50
2022-10-24T12:23:08.413Z,9.80
2022-10-24T12:25:39.004Z,4.55
2022-10-24T12:28:12.279Z,3.67
2022-10-24T12:30:39.572Z,4.72
2022-10-24T12:33:25.474Z,9.05
2022-10-24T12:35:56.479Z,3.75
2022-10-24T12:38:29.502Z,4.97
2022-10-24T12:41:05.792Z,3.83
2022-10-24T12:43:32.988Z,6.32
2022-10-24T12:46:23.473Z,5.03
2022-10-24T12:48:59.706Z,7.55
2022-10-24T12:51:27.540Z,4.45
2022-10-24T12:54:12.697Z,5.20
2022-10-24T12:56:52.228Z,7.35
2022-10-24T12:59:19.366Z,6.32
2022-10-24T13:01:47.477Z,8.68
2022-10-24T13:04:30.021Z,4.75
2022-10-24T13:07:09.648Z,7.30
2022-10-24T13:09:57.050Z,8.50
2022-10-24T13:12:43.191Z,9.15
2022-10-24T13:15:29.345Z,6.63
2022-10-24T13:18:05.954Z,5.10
2022-10-24T13:20:46.194Z,7.18
2022-10-24T13:23:15.704Z,5.15
2022-10-24T13:25:43.216Z,6.68
2022-10-24T13:28:23.237Z,7.22
2022-10-24T13:30:53.566Z,5.85
2022-10-24T13:33:40.781Z,5.93
2022-10-24T13:36:08.076Z,4.85
2022-10-24T13:38:41.728Z,5.57
2022-10-24T13:41:11.617Z,5.80
2022-10-24T13:43:49.973Z,6.18
2022-10-24T13:46:26.250Z,4.60
2022-10-24T13:48:53.916Z,6.82
2022-10-24T13:51:24.505Z,8.18
2022-10-24T13:53:51.681Z,6.53
2022-10-24T13:56:18.919Z,6.60
2022-10-24T13:58:46.609Z,5.30
2022-10-24T14:01:16.606Z,5.80
2022-10-24T14:03:44.338Z,5.95
2022-10-24T14:06:12.065Z,7.32
2022-10-24T14:08:57.466Z,9.70
2022-10-24T14:11:30.270Z,6.65
2022-10-24T14:14:05.613Z,7.10
2022-10-24T14:16:34.843Z,5.68
2022-10-24T14:19:14.053Z,3.97
2022-10-24T14:21:48.960Z,8.40
2022-10-24T14:24:17.345Z,7.00
2022-10-24T14:26:47.948Z,6.75
2022-10-24T14:29:27.681Z,4.90
2022-10-24T14:31:59.430Z,4.60
2022-10-24T14:34:26.699Z,4.40
2022-10-24T14:36:55.913Z,2.95
2022-10-24T14:39:26.740Z,4.50
2022-10-24T14:41:54.801Z,3.78
2022-10-24T14:44:23.117Z,4.88
2022-10-24T14:47:07.098Z,8.40
2022-10-24T14:49:37.145Z,5.13
2022-10-24T14:52:10.184Z,5.95
2022-10-24T14:54:37.863Z,6.22
2022-10-24T14:57:10.209Z,5.15
2022-10-24T14:59:39.570Z,4.38
2022-10-24T15:02:21.016Z,5.10
2022-10-24T15:04:48.589Z,7.18
2022-10-24T15:07:29.932Z,5.47
2022-10-24T15:10:01.846Z,3.13
2022-10-24T15:12:32.693Z,6.50
2022-10-24T15:15:00.481Z,5.43
2022-10-24T15:17:32.391Z,9.13
2022-10-24T15:20:03.474Z,5.63
2022-10-24T15:22:38.639Z,8.80
2022-10-24T15:25:18.870Z,8.32
2022-10-24T15:27:46.653Z,7.70
2022-10-24T15:30:15.957Z,12.23
2022-10-24T15:32:43.761Z,6.28
2022-10-24T15:35:11.408Z,4.90
2022-10-24T15:37:38.622Z,6.88
2022-10-24T15:40:08.232Z,9.65
2022-10-24T15:42:35.466Z,5.90
2022-10-24T15:45:02.651Z,6.88
2022-10-24T15:47:30.433Z,7.68
2022-10-24T15:49:57.566Z,7.07
2022-10-24T15:52:24.726Z,6.45
2022-10-24T15:54:55.085Z,4.60
2022-10-24T15:57:22.283Z,5.38
2022-10-24T15:59:49.546Z,5.53
2022-10-24T16:02:18.629Z,5.93
2022-10-24T16:04:45.930Z,9.27
2022-10-24T16:07:13.072Z,5.82
2022-10-24T16:09:40.371Z,4.50
2022-10-24T16:12:07.937Z,5.15
2022-10-24T16:14:35.202Z,2.70
2022-10-24T16:17:02.390Z,9.48
2022-10-24T16:19:29.934Z,6.80
2022-10-24T16:22:01.521Z,7.63
2022-10-24T16:24:29.180Z,7.97
2022-10-24T16:26:56.401Z,4.63
2022-10-24T16:29:23.590Z,5.88
2022-10-24T16:31:50.816Z,10.10
2022-10-24T16:34:18.074Z,9.88
2022-10-24T16:36:45.392Z,7.57
2022-10-24T16:39:14.448Z,5.65
2022-10-24T16:41:46.128Z,5.50
2022-10-24T16:44:14.262Z,10.77
2022-10-24T16:46:41.547Z,5.60
2022-10-24T16:49:08.854Z,7.18
2022-10-24T16:51:38.295Z,8.27
2022-10-24T16:54:07.864Z,8.32
2022-10-24T16:56:35.142Z,8.20
2022-10-24T16:59:02.382Z,3.65
2022-10-24T17:01:29.627Z,7.07
2022-10-24T17:03:56.964Z,6.90
2022-10-24T17:06:24.146Z,10.10
2022-10-24T17:08:52.504Z,10.10
2022-10-24T17:11:43.826Z,5.68
2022-10-24T17:16:35.480Z,7.35
2022-10-24T17:19:15.616Z,11.07
2022-10-24T17:21:44.410Z,9.55
2022-10-24T17:24:12.136Z,5.53
2022-10-24T17:26:39.464Z,14.00
2022-10-24T17:29:08.222Z,14.02
2022-10-24T17:31:35.845Z,7.68
2022-10-24T17:34:03.274Z,5.80
2022-10-24T17:36:35.541Z,17.42
2022-10-24T17:39:18.754Z,16.25
2022-10-24T17:41:46.026Z,10.52
2022-10-24T17:44:15.884Z,13.43
2022-10-24T17:46:43.297Z,9.90
2022-10-24T17:49:11.293Z,8.32
2022-10-24T17:51:41.048Z,12.05
2022-10-24T17:54:09.284Z,8.90
2022-10-24T17:56:36.496Z,12.80
2022-10-24T17:59:03.687Z,10.70
2022-10-24T18:01:31.017Z,19.65
2022-10-24T18:03:58.304Z,15.45
2022-10-24T18:06:25.618Z,15.68
2022-10-24T18:08:56.284Z,7.93
2022-10-24T18:11:23.437Z,11.52
2022-10-24T18:13:50.595Z,10.02
2022-10-24T18:16:18.757Z,11.32
2022-10-24T18:18:46.649Z,11.10
2022-10-24T18:21:15.906Z,12.57
2022-10-24T18:23:43.226Z,12.30
2022-10-24T18:26:11.649Z,9.40
2022-10-24T18:28:39.436Z,11.93
2022-10-24T18:31:07.935Z,14.30
2022-10-24T18:33:35.097Z,9.82
2022-10-24T18:36:12.817Z,12.85
2022-10-24T18:38:40.552Z,10.48
2022-10-24T18:41:39.949Z,17.45
2022-10-24T18:44:22.925Z,12.68
2022-10-24T18:46:51.360Z,15.40
2022-10-24T18:49:18.913Z,12.23
2022-10-24T18:51:53.860Z,12.18
2022-10-24T18:54:21.927Z,9.45
2022-10-24T18:56:49.502Z,11.73
2022-10-24T18:59:18.031Z,15.23
2022-10-24T19:01:48.450Z,12.65
2022-10-24T19:04:23.501Z,13.75
2022-10-24T19:06:51.983Z,14.82
2022-10-24T19:09:20.633Z,10.38
2022-10-24T19:11:48.912Z,10.98
2022-10-24T19:14:16.517Z,13.48
2022-10-24T19:16:45.882Z,22.13
2022-10-24T19:19:14.735Z,14.70
2022-10-24T19:21:43.487Z,13.98
2022-10-24T19:24:12.557Z,11.85
2022-10-24T19:26:39.781Z,15.20
2022-10-24T19:29:07.039Z,15.15
2022-10-24T19:31:34.164Z,10.18
2022-10-24T19:34:01.311Z,9.75
2022-10-24T19:36:28.477Z,16.13
2022-10-24T19:38:56.578Z,13.70
2022-10-24T19:41:24.136Z,14.52
2022-10-24T19:43:51.266Z,12.02
2022-10-24T19:46:20.131Z,12.25
2022-10-24T19:48:53.108Z,13.57
2022-10-24T19:51:20.630Z,12.57
2022-10-24T19:53:49.559Z,18.05
2022-10-24T19:56:23.896Z,17.42
2022-10-24T20:01:20.993Z,17.88
2022-10-24T20:03:49.150Z,17.42
2022-10-24T20:06:16.763Z,10.70
2022-10-24T20:08:44.018Z,14.90
2022-10-24T20:11:11.294Z,14.48
2022-10-24T20:13:38.505Z,18.55
2022-10-24T20:16:06.567Z,14.05
2022-10-24T20:18:35.240Z,14.00
2022-10-24T20:21:04.162Z,16.90
2022-10-24T20:23:31.622Z,13.65
2022-10-24T20:26:00.350Z,18.75
2022-10-24T20:28:27.537Z,13.52
2022-10-24T20:30:54.864Z,15.98
2022-10-24T20:33:22.445Z,13.57
2022-10-24T20:35:49.619Z,15.55
2022-10-24T20:38:16.764Z,13.63
2022-10-24T20:40:43.949Z,23.17
2022-10-24T20:43:11.115Z,22.15
2022-10-24T20:45:41.564Z,19.63
2022-10-24T20:48:09.069Z,19.88
2022-10-24T20:50:36.452Z,26.15
2022-10-24T20:53:04.133Z,20.20
2022-10-24T20:55:43.904Z,13.23
2022-10-24T20:58:14.216Z,26.38
2022-10-24T21:03:15.238Z,12.68
2022-10-24T21:05:42.468Z,18.13
2022-10-24T21:08:09.684Z,17.40
2022-10-24T21:10:36.829Z,19.73
2022-10-24T21:13:04.103Z,14.93
2022-10-24T21:15:31.370Z,10.60
2022-10-24T21:17:58.517Z,10.55
2022-10-24T21:20:25.667Z,19.02
2022-10-24T21:22:52.797Z,12.90
2022-10-24T21:25:19.996Z,14.57
2022-10-24T21:27:47.419Z,22.90
2022-10-24T21:30:15.063Z,19.40
2022-10-24T21:32:42.411Z,11.93
2022-10-24T21:35:09.597Z,14.88
2022-10-24T21:37:36.866Z,13.05
2022-10-24T21:40:04.181Z,18.83
2022-10-24T21:42:33.149Z,15.70
2022-10-24T21:45:00.596Z,17.67
2022-10-24T21:47:28.456Z,12.65
2022-10-24T21:49:55.617Z,18.70
2022-10-24T21:52:22.782Z,13.68
2022-10-24T21:54:50.033Z,13.30
2022-10-24T21:57:17.180Z,18.70
2022-10-24T21:59:44.313Z,16.40
2022-10-24T22:02:11.702Z,18.60
2022-10-24T22:04:38.946Z,14.07
2022-10-24T22:07:07.225Z,14.95
2022-10-24T22:09:34.459Z,17.45
2022-10-24T22:12:01.632Z,17.33
2022-10-24T22:14:28.754Z,15.23
2022-10-24T22:16:56.092Z,16.23
2022-10-24T22:19:23.259Z,17.55
2022-10-24T22:21:51.284Z,18.63
2022-10-24T22:24:19.722Z,14.23
2022-10-24T22:26:46.972Z,17.13
2022-10-24T22:29:15.498Z,16.83
2022-10-24T22:31:42.913Z,16.75
2022-10-24T22:34:11.717Z,14.00
2022-10-24T22:36:41.877Z,12.90
2022-10-24T22:39:16.295Z,20.73
2022-10-24T22:41:44.005Z,19.33
2022-10-24T22:44:11.847Z,15.18
2022-10-24T22:46:57.400Z,16.20
2022-10-24T22:49:43.076Z,18.67
2022-10-24T22:52:11.395Z,15.05
2022-10-24T22:54:38.833Z,18.63
2022-10-24T22:57:06.343Z,12.35
2022-10-24T22:59:34.210Z,18.58
2022-10-24T23:02:04.463Z,22.83
2022-10-24T23:04:50.244Z,20.00
2022-10-24T23:07:27.588Z,16.25
2022-10-24T23:09:55.289Z,12.60
2022-10-24T23:12:23.015Z,12.60
2022-10-24T23:14:50.599Z,18.92
2022-10-24T23:17:27.908Z,16.58
2022-10-24T23:19:55.519Z,16.60
2022-10-24T23:22:22.767Z,21.52
2022-10-24T23:24:51.081Z,19.65
2022-10-24T23:27:34.259Z,23.20
2022-10-24T23:30:05.908Z,18.80
2022-10-24T23:32:34.532Z,20.67
2022-10-24T23:35:01.837Z,26.50
2022-10-24T23:37:28.954Z,20.58
2022-10-24T23:39:56.721Z,17.73
2022-10-24T23:42:23.986Z,21.45
2022-10-24T23:44:51.290Z,23.48
2022-10-24T23:47:30.271Z,15.95
2022-10-24T23:50:16.114Z,23.85
2022-10-24T23:55:12.685Z,24.13
2022-10-24T23:57:39.833Z,30.58
